createdAt,value
2022-10-21T00:00:37.384Z,959.4
2022-10-21T00:02:37.652Z,959.41
2022-10-21T00:03:38.427Z,959.38
2022-10-21T00:04:37.451Z,959.34
2022-10-21T00:05:37.305Z,959.32
2022-10-21T00:06:37.495Z,959.26
2022-10-21T00:07:37.460Z,959.17
2022-10-21T00:08:37.389Z,959.16
2022-10-21T00:09:37.499Z,959.1
2022-10-21T00:11:37.428Z,959
2022-10-21T00:12:37.776Z,958.9
2022-10-21T00:13:37.388Z,958.85
2022-10-21T00:14:37.336Z,958.83
2022-10-21T00:15:37.322Z,958.77
2022-10-21T00:16:37.328Z,958.75
2022-10-21T00:17:37.424Z,958.68
2022-10-21T00:18:37.326Z,958.64
2022-10-21T00:19:37.325Z,958.63
2022-10-21T00:20:38.818Z,958.6
2022-10-21T00:23:37.386Z,958.65
2022-10-21T00:24:37.541Z,958.7
2022-10-21T00:25:37.342Z,958.76
2022-10-21T00:26:38.685Z,958.78
2022-10-21T00:27:37.639Z,958.81
2022-10-21T00:28:37.359Z,958.77
2022-10-21T00:29:37.461Z,958.73
2022-10-21T00:31:37.376Z,958.74
2022-10-21T00:32:37.762Z,958.72
2022-10-21T00:33:37.368Z,958.73
2022-10-21T00:34:37.389Z,958.74
2022-10-21T00:35:37.370Z,958.72
2022-10-21T00:36:37.375Z,958.74
2022-10-21T00:37:37.614Z,958.69
2022-10-21T00:38:37.576Z,958.68
2022-10-21T00:39:37.408Z,958.79
2022-10-21T00:40:37.391Z,958.86
2022-10-21T00:41:37.389Z,958.9
2022-10-21T00:42:38.591Z,958.87
2022-10-21T00:43:37.403Z,958.9
2022-10-21T00:45:37.471Z,958.92
2022-10-21T00:46:37.419Z,958.97
2022-10-21T00:47:37.416Z,959.03
2022-10-21T00:48:37.564Z,959.06
2022-10-21T00:49:37.411Z,959.12
2022-10-21T00:50:38.738Z,959.14
2022-10-21T00:51:37.404Z,959.07
2022-10-21T00:52:37.687Z,959.01
2022-10-21T00:53:37.432Z,959.06
2022-10-21T00:54:37.423Z,959.03
2022-10-21T00:55:37.424Z,959.04
2022-10-21T00:56:37.442Z,959.05
2022-10-21T00:57:37.703Z,959
2022-10-21T00:58:37.422Z,958.95
2022-10-21T00:59:37.432Z,958.98
2022-10-21T01:01:37.463Z,958.91
2022-10-21T01:04:37.507Z,958.88
2022-10-21T01:05:37.578Z,958.86
2022-10-21T01:06:37.448Z,958.82
2022-10-21T01:07:38.888Z,958.8
2022-10-21T01:08:37.677Z,958.81
2022-10-21T01:09:37.454Z,958.79
2022-10-21T01:10:37.458Z,958.8
2022-10-21T01:11:37.458Z,958.85
2022-10-21T01:12:37.469Z,958.81
2022-10-21T01:13:37.471Z,958.84
2022-10-21T01:14:37.481Z,958.82
2022-10-21T01:15:37.478Z,958.86
2022-10-21T01:16:37.481Z,958.8
2022-10-21T01:17:44.721Z,958.81
2022-10-21T01:18:37.606Z,958.79
2022-10-21T01:19:37.482Z,958.72
2022-10-21T01:20:37.488Z,958.74
2022-10-21T01:21:37.510Z,958.71
2022-10-21T01:22:37.487Z,958.72
2022-10-21T01:26:37.614Z,958.69
2022-10-21T01:27:37.746Z,958.67
2022-10-21T01:28:37.500Z,958.73
2022-10-21T01:29:37.494Z,958.76
2022-10-21T01:30:37.505Z,958.79
2022-10-21T01:31:37.515Z,958.78
2022-10-21T01:33:37.638Z,958.79
2022-10-21T01:34:37.525Z,958.81
2022-10-21T01:35:37.537Z,958.86
2022-10-21T01:36:37.519Z,958.89
2022-10-21T01:37:37.746Z,958.92
2022-10-21T01:38:37.531Z,958.91
2022-10-21T01:39:37.542Z,958.92
2022-10-21T01:40:37.541Z,958.94
2022-10-21T01:41:37.537Z,958.97
2022-10-21T01:42:37.726Z,958.98
2022-10-21T01:43:37.807Z,958.97
2022-10-21T01:44:37.547Z,959
2022-10-21T01:45:37.546Z,958.97
2022-10-21T01:47:37.556Z,958.9
2022-10-21T01:48:37.553Z,958.79
2022-10-21T01:49:37.544Z,958.74
2022-10-21T01:50:37.563Z,958.67
2022-10-21T01:51:37.578Z,958.64
2022-10-21T01:52:37.941Z,958.69
2022-10-21T01:53:37.569Z,958.7
2022-10-21T01:54:37.563Z,958.69
2022-10-21T01:55:37.558Z,958.67
2022-10-21T01:56:37.573Z,958.66
2022-10-21T01:57:37.570Z,958.64
2022-10-21T01:58:37.565Z,958.63
2022-10-21T02:00:37.693Z,958.65
2022-10-21T02:01:37.596Z,958.64
2022-10-21T02:02:37.726Z,958.67
2022-10-21T02:03:37.664Z,958.66
2022-10-21T02:04:38.639Z,958.62
2022-10-21T02:05:37.690Z,958.63
2022-10-21T02:06:37.601Z,958.6
2022-10-21T02:07:38.680Z,958.58
2022-10-21T02:08:37.609Z,958.55
2022-10-21T02:09:37.609Z,958.52
2022-10-21T02:10:37.592Z,958.46
2022-10-21T02:11:37.707Z,958.39
2022-10-21T02:12:37.955Z,958.32
2022-10-21T02:13:37.619Z,958.27
2022-10-21T02:14:37.626Z,958.25
2022-10-21T02:15:37.605Z,958.22
2022-10-21T02:17:37.727Z,958.21
2022-10-21T02:18:37.792Z,958.24
2022-10-21T02:19:37.765Z,958.23
2022-10-21T02:20:37.713Z,958.26
2022-10-21T02:21:38.710Z,958.28
2022-10-21T02:23:37.819Z,958.27
2022-10-21T02:24:37.658Z,958.28
2022-10-21T02:25:37.649Z,958.26
2022-10-21T02:26:37.725Z,958.28
2022-10-21T02:27:37.806Z,958.33
2022-10-21T02:28:37.700Z,958.31
2022-10-21T02:29:37.724Z,958.28
2022-10-21T02:30:41.794Z,958.26
2022-10-21T02:31:37.771Z,958.27
2022-10-21T02:32:37.831Z,958.21
2022-10-21T02:33:37.698Z,958.2
2022-10-21T02:34:37.669Z,958.11
2022-10-21T02:35:37.750Z,958.01
2022-10-21T02:36:37.676Z,958
2022-10-21T02:38:37.681Z,957.85
2022-10-21T02:39:37.689Z,957.81
2022-10-21T02:40:37.786Z,957.8
2022-10-21T02:41:37.678Z,957.76
2022-10-21T02:42:38.118Z,957.73
2022-10-21T02:43:37.987Z,957.7
2022-10-21T02:44:37.690Z,957.69
2022-10-21T02:45:38.863Z,957.67
2022-10-21T02:46:37.780Z,957.66
2022-10-21T02:47:37.801Z,957.59
2022-10-21T02:48:37.721Z,957.65
2022-10-21T02:50:38.980Z,957.61
2022-10-21T02:51:37.854Z,957.69
2022-10-21T02:53:37.895Z,957.67
2022-10-21T02:54:37.693Z,957.73
2022-10-21T02:55:37.800Z,957.71
2022-10-21T02:56:37.881Z,957.73
2022-10-21T02:57:38.046Z,957.79
2022-10-21T02:58:37.804Z,957.8
2022-10-21T02:59:37.781Z,957.83
2022-10-21T03:00:37.873Z,957.86
2022-10-21T03:01:37.811Z,957.9
2022-10-21T03:02:37.746Z,957.88
2022-10-21T03:03:37.747Z,957.91
2022-10-21T03:04:37.811Z,957.9
2022-10-21T03:06:37.869Z,957.88
2022-10-21T03:07:38.061Z,957.86
2022-10-21T03:08:37.786Z,957.88
2022-10-21T03:09:37.857Z,957.86
2022-10-21T03:10:37.825Z,957.87
2022-10-21T03:11:39.005Z,957.88
2022-10-21T03:12:37.855Z,957.87
2022-10-21T03:13:37.818Z,957.83
2022-10-21T03:14:37.885Z,957.81
2022-10-21T03:15:37.862Z,957.79
2022-10-21T03:16:37.848Z,957.74
2022-10-21T03:17:38.107Z,957.73
2022-10-21T03:18:37.766Z,957.66
2022-10-21T03:19:37.770Z,957.62
2022-10-21T03:20:37.888Z,957.6
2022-10-21T03:22:37.974Z,957.54
2022-10-21T03:24:38.262Z,957.53
2022-10-21T03:26:37.933Z,957.51
2022-10-21T03:27:37.834Z,957.54
2022-10-21T03:28:37.844Z,957.56
2022-10-21T03:30:37.890Z,957.59
2022-10-21T03:31:39.130Z,957.62
2022-10-21T03:32:38.210Z,957.59
2022-10-21T03:33:37.881Z,957.62
2022-10-21T03:36:37.908Z,957.7
2022-10-21T03:37:37.969Z,957.71
2022-10-21T03:40:38.044Z,957.73
2022-10-21T03:42:38.097Z,957.7
2022-10-21T03:43:38.067Z,957.68
2022-10-21T03:44:37.842Z,957.69
2022-10-21T03:45:37.839Z,957.64
2022-10-21T03:46:39.218Z,957.63
2022-10-21T03:47:37.934Z,957.6
2022-10-21T03:48:37.914Z,957.56
2022-10-21T03:49:38.006Z,957.59
2022-10-21T03:50:37.945Z,957.55
2022-10-21T03:51:37.855Z,957.59
2022-10-21T03:52:39.511Z,957.58
2022-10-21T03:53:43.096Z,957.54
2022-10-21T03:54:38.045Z,957.6
2022-10-21T03:55:39.274Z,957.57
2022-10-21T03:57:38.206Z,957.61
2022-10-21T03:58:38.008Z,957.57
2022-10-21T03:59:37.969Z,957.58
2022-10-21T04:00:38.020Z,957.56
2022-10-21T04:01:37.893Z,957.5
2022-10-21T04:02:38.174Z,957.48
2022-10-21T04:03:37.942Z,957.45
2022-10-21T04:04:37.869Z,957.4
2022-10-21T04:06:38.115Z,957.39
2022-10-21T04:07:38.028Z,957.37
2022-10-21T04:08:37.949Z,957.36
2022-10-21T04:09:37.880Z,957.37
2022-10-21T04:10:38.000Z,957.38
2022-10-21T04:11:37.902Z,957.37
2022-10-21T04:12:38.226Z,957.33
2022-10-21T04:13:38.011Z,957.31
2022-10-21T04:14:37.919Z,957.3
2022-10-21T04:15:38.055Z,957.24
2022-10-21T04:16:37.914Z,957.15
2022-10-21T04:17:37.978Z,957.14
2022-10-21T04:18:38.044Z,957.16
2022-10-21T04:19:37.920Z,957.14
2022-10-21T04:20:37.942Z,957.11
2022-10-21T04:21:37.911Z,957.12
2022-10-21T04:22:38.056Z,957.09
2022-10-21T04:23:37.912Z,957.08
2022-10-21T04:24:38.056Z,957.07
2022-10-21T04:27:38.197Z,957.13
2022-10-21T04:28:37.953Z,957.11
2022-10-21T04:29:38.126Z,957.09
2022-10-21T04:30:37.949Z,957.06
2022-10-21T04:31:37.953Z,957.03
2022-10-21T04:32:38.382Z,956.96
2022-10-21T04:34:37.962Z,956.94
2022-10-21T04:37:38.042Z,956.96
2022-10-21T04:38:37.977Z,956.94
2022-10-21T04:39:37.980Z,956.93
2022-10-21T04:41:37.979Z,956.95
2022-10-21T04:42:38.090Z,956.91
2022-10-21T04:43:38.053Z,956.89
2022-10-21T04:44:38.124Z,956.76
2022-10-21T04:45:37.980Z,956.71
2022-10-21T04:46:37.977Z,956.66
2022-10-21T04:47:38.212Z,956.65
2022-10-21T04:48:37.999Z,956.68
2022-10-21T04:49:37.995Z,956.65
2022-10-21T04:50:37.998Z,956.69
2022-10-21T04:51:38.001Z,956.64
2022-10-21T04:53:39.095Z,956.59
2022-10-21T04:54:38.108Z,956.52
2022-10-21T04:55:38.101Z,956.51
2022-10-21T04:56:38.127Z,956.4
2022-10-21T04:57:38.104Z,956.34
2022-10-21T04:58:38.080Z,956.3
2022-10-21T04:59:38.044Z,956.25
2022-10-21T05:00:38.148Z,956.24
2022-10-21T05:02:38.308Z,956.22
2022-10-21T05:03:38.126Z,956.21
2022-10-21T05:05:38.068Z,956.19
2022-10-21T05:06:38.112Z,956.17
2022-10-21T05:07:38.188Z,956.15
2022-10-21T05:08:38.085Z,956.14
2022-10-21T05:11:38.152Z,956.12
2022-10-21T05:12:38.033Z,956.17
2022-10-21T05:13:38.203Z,956.15
2022-10-21T05:14:38.034Z,956.14
2022-10-21T05:15:38.042Z,956.19
2022-10-21T05:16:38.209Z,956.16
2022-10-21T05:17:38.371Z,956.14
2022-10-21T05:18:38.142Z,956.13
2022-10-21T05:19:38.204Z,956.1
2022-10-21T05:20:38.171Z,956.14
2022-10-21T05:21:38.081Z,956.12
2022-10-21T05:22:38.394Z,956.17
2022-10-21T05:23:38.167Z,956.18
2022-10-21T05:24:38.147Z,956.2
2022-10-21T05:25:38.207Z,956.25
2022-10-21T05:26:38.172Z,956.24
2022-10-21T05:27:38.140Z,956.27
2022-10-21T05:28:38.212Z,956.28
2022-10-21T05:31:38.157Z,956.3
2022-10-21T05:33:38.236Z,956.31
2022-10-21T05:34:38.090Z,956.36
2022-10-21T05:36:39.384Z,956.45
2022-10-21T05:37:38.096Z,956.47
2022-10-21T05:38:38.193Z,956.49
2022-10-21T05:39:38.329Z,956.46
2022-10-21T05:40:38.223Z,956.48
2022-10-21T05:41:38.221Z,956.43
2022-10-21T05:42:38.374Z,956.35
2022-10-21T05:43:38.351Z,956.34
2022-10-21T05:44:38.198Z,956.32
2022-10-21T05:45:38.299Z,956.31
2022-10-21T05:47:38.343Z,956.28
2022-10-21T05:48:39.530Z,956.25
2022-10-21T05:49:38.241Z,956.21
2022-10-21T05:50:38.144Z,956.19
2022-10-21T05:51:42.574Z,956.16
2022-10-21T05:53:38.211Z,956.13
2022-10-21T05:54:38.241Z,956.11
2022-10-21T05:55:38.227Z,956.13
2022-10-21T05:56:38.273Z,956.08
2022-10-21T05:57:38.396Z,956
2022-10-21T05:59:38.220Z,955.98
2022-10-21T06:00:38.341Z,955.94
2022-10-21T06:01:38.264Z,955.95
2022-10-21T06:02:38.456Z,955.94
2022-10-21T06:03:38.164Z,955.97
2022-10-21T06:04:38.921Z,955.96
2022-10-21T06:06:38.405Z,955.95
2022-10-21T06:07:38.378Z,955.99
2022-10-21T06:08:38.409Z,955.98
2022-10-21T06:09:38.170Z,955.97
2022-10-21T06:10:38.301Z,955.98
2022-10-21T06:11:38.188Z,956.04
2022-10-21T06:12:38.206Z,956.05
2022-10-21T06:13:38.280Z,956.07
2022-10-21T06:14:39.611Z,956.12
2022-10-21T06:15:38.199Z,956.13
2022-10-21T06:16:38.280Z,956.17
2022-10-21T06:17:38.495Z,956.26
2022-10-21T06:18:38.319Z,956.33
2022-10-21T06:19:38.212Z,956.46
2022-10-21T06:20:38.209Z,956.56
2022-10-21T06:21:38.351Z,956.66
2022-10-21T06:22:38.295Z,956.76
2022-10-21T06:23:38.215Z,956.87
2022-10-21T06:24:38.338Z,956.97
2022-10-21T06:25:38.226Z,957.08
2022-10-21T06:26:38.368Z,957.22
2022-10-21T06:27:38.331Z,957.33
2022-10-21T06:28:38.220Z,957.4
2022-10-21T06:29:38.382Z,957.46
2022-10-21T06:30:38.235Z,957.53
2022-10-21T06:31:38.228Z,957.61
2022-10-21T06:32:38.390Z,957.65
2022-10-21T06:33:38.230Z,957.73
2022-10-21T06:34:38.294Z,957.78
2022-10-21T06:35:39.212Z,957.8
2022-10-21T06:36:38.235Z,957.86
2022-10-21T06:37:38.479Z,957.91
2022-10-21T06:38:39.240Z,957.94
2022-10-21T06:39:38.241Z,957.96
2022-10-21T06:40:38.300Z,958
2022-10-21T06:41:38.386Z,958.03
2022-10-21T06:42:38.369Z,958.08
2022-10-21T06:43:38.263Z,958.13
2022-10-21T06:44:38.278Z,958.17
2022-10-21T06:45:38.353Z,958.22
2022-10-21T06:46:38.307Z,958.28
2022-10-21T06:47:38.399Z,958.31
2022-10-21T06:48:38.364Z,958.34
2022-10-21T06:49:38.426Z,958.39
2022-10-21T06:50:38.287Z,958.45
2022-10-21T06:51:38.364Z,958.42
2022-10-21T06:52:38.423Z,958.4
2022-10-21T06:53:39.142Z,958.39
2022-10-21T06:54:38.288Z,958.44
2022-10-21T06:55:38.423Z,958.41
2022-10-21T06:56:38.294Z,958.4
2022-10-21T06:57:38.561Z,958.37
2022-10-21T06:58:38.305Z,958.39
2022-10-21T06:59:38.401Z,958.29
2022-10-21T07:00:38.381Z,958.19
2022-10-21T07:01:55.487Z,958.06
2022-10-21T07:02:38.717Z,957.78
2022-10-21T07:03:38.321Z,957.53
2022-10-21T07:04:38.442Z,957.38
2022-10-21T07:05:38.317Z,957.34
2022-10-21T07:06:38.392Z,957.28
2022-10-21T07:07:39.486Z,957.2
2022-10-21T07:09:38.535Z,957.24
2022-10-21T07:10:38.360Z,957.23
2022-10-21T07:11:38.434Z,957.27
2022-10-21T07:12:38.341Z,957.25
2022-10-21T07:13:38.459Z,957.26
2022-10-21T07:14:38.447Z,957.13
2022-10-21T07:15:38.395Z,957.12
2022-10-21T07:16:38.360Z,957.2
2022-10-21T07:20:38.391Z,957.21
2022-10-21T07:21:38.540Z,957.27
2022-10-21T07:23:38.447Z,957.26
2022-10-21T07:24:38.721Z,957.31
2022-10-21T07:25:38.573Z,957.34
2022-10-21T07:26:38.451Z,957.36
2022-10-21T07:27:38.727Z,957.43
2022-10-21T07:28:38.478Z,957.45
2022-10-21T07:29:38.381Z,957.44
2022-10-21T07:30:38.509Z,957.43
2022-10-21T07:33:38.522Z,957.49
2022-10-21T07:34:38.511Z,957.53
2022-10-21T07:35:38.389Z,957.54
2022-10-21T07:36:39.572Z,957.58
2022-10-21T07:37:38.607Z,957.59
2022-10-21T07:38:38.461Z,957.62
2022-10-21T07:39:38.425Z,957.57
2022-10-21T07:40:38.498Z,957.59
2022-10-21T07:41:38.462Z,957.61
2022-10-21T07:42:38.421Z,957.63
2022-10-21T07:43:38.512Z,957.64
2022-10-21T07:44:38.466Z,957.66
2022-10-21T07:45:38.429Z,957.64
2022-10-21T07:46:38.518Z,957.65
2022-10-21T07:48:38.513Z,957.66
2022-10-21T07:49:38.522Z,957.68
2022-10-21T07:52:40.228Z,957.65
2022-10-21T07:54:38.633Z,957.67
2022-10-21T07:55:38.438Z,957.66
2022-10-21T07:56:38.599Z,957.68
2022-10-21T07:57:38.434Z,957.69
2022-10-21T07:58:38.441Z,957.74
2022-10-21T07:59:38.469Z,957.78
2022-10-21T08:00:38.489Z,957.82
2022-10-21T08:01:38.576Z,957.85
2022-10-21T08:02:39.919Z,957.86
2022-10-21T08:03:38.468Z,957.82
2022-10-21T08:04:38.526Z,957.83
2022-10-21T08:05:38.597Z,957.76
2022-10-21T08:06:38.564Z,957.79
2022-10-21T08:07:38.461Z,957.84
2022-10-21T08:08:38.514Z,957.81
2022-10-21T08:09:38.571Z,957.83
2022-10-21T08:10:38.704Z,957.82
2022-10-21T08:11:38.465Z,957.84
2022-10-21T08:13:38.681Z,957.86
2022-10-21T08:14:38.621Z,957.88
2022-10-21T08:15:38.490Z,957.94
2022-10-21T08:16:38.601Z,957.99
2022-10-21T08:17:38.625Z,958.04
2022-10-21T08:18:38.594Z,958.06
2022-10-21T08:19:38.553Z,958.14
2022-10-21T08:20:38.640Z,958.2
2022-10-21T08:21:38.604Z,958.25
2022-10-21T08:22:38.905Z,958.29
2022-10-21T08:23:38.516Z,958.37
2022-10-21T08:24:39.843Z,958.4
2022-10-21T08:25:38.580Z,958.44
2022-10-21T08:26:38.532Z,958.41
2022-10-21T08:27:38.609Z,958.45
2022-10-21T08:28:38.660Z,958.52
2022-10-21T08:29:39.913Z,958.81
2022-10-21T08:30:38.611Z,959.24
2022-10-21T08:31:38.536Z,959.33
2022-10-21T08:32:38.771Z,959.4
2022-10-21T08:33:38.600Z,959.45
2022-10-21T08:34:38.532Z,959.55
2022-10-21T08:35:38.638Z,959.59
2022-10-21T08:36:38.532Z,959.66
2022-10-21T08:37:40.050Z,959.63
2022-10-21T08:38:38.659Z,959.67
2022-10-21T08:39:38.612Z,959.64
2022-10-21T08:40:39.949Z,959.7
2022-10-21T08:41:38.548Z,959.67
2022-10-21T08:42:38.802Z,959.65
2022-10-21T08:43:40.155Z,959.62
2022-10-21T08:44:38.584Z,959.56
2022-10-21T08:45:38.672Z,959.55
2022-10-21T08:46:38.691Z,959.59
2022-10-21T08:47:38.882Z,959.57
2022-10-21T08:49:38.705Z,959.58
2022-10-21T08:50:38.661Z,959.51
2022-10-21T08:51:38.587Z,959.52
2022-10-21T08:52:38.572Z,959.46
2022-10-21T08:53:38.675Z,959.48
2022-10-21T08:54:38.663Z,959.42
2022-10-21T08:55:38.590Z,959.43
2022-10-21T08:58:38.689Z,959.45
2022-10-21T08:59:38.708Z,959.5
2022-10-21T09:00:38.596Z,959.48
2022-10-21T09:01:38.711Z,959.5
2022-10-21T09:02:38.733Z,959.47
2022-10-21T09:04:38.619Z,959.5
2022-10-21T09:05:38.603Z,959.47
2022-10-21T09:06:39.584Z,959.5
2022-10-21T09:07:38.825Z,959.53
2022-10-21T09:08:38.735Z,959.49
2022-10-21T09:09:38.807Z,959.52
2022-10-21T09:10:38.732Z,959.53
2022-10-21T09:11:38.623Z,959.54
2022-10-21T09:12:38.661Z,959.57
2022-10-21T09:13:38.725Z,959.58
2022-10-21T09:14:38.625Z,959.6
2022-10-21T09:15:38.761Z,959.57
2022-10-21T09:17:38.874Z,959.56
2022-10-21T09:18:38.633Z,959.57
2022-10-21T09:19:38.736Z,959.55
2022-10-21T09:20:38.728Z,959.57
2022-10-21T09:21:38.774Z,959.56
2022-10-21T09:23:38.873Z,959.48
2022-10-21T09:24:38.655Z,959.49
2022-10-21T09:25:38.653Z,959.47
2022-10-21T09:28:38.791Z,959.49
2022-10-21T09:29:38.760Z,959.5
2022-10-21T09:30:38.787Z,959.52
2022-10-21T09:31:38.761Z,959.55
2022-10-21T09:32:39.750Z,959.53
2022-10-21T09:33:38.670Z,959.5
2022-10-21T09:34:38.755Z,959.51
2022-10-21T09:35:38.732Z,959.54
2022-10-21T09:36:38.670Z,959.57
2022-10-21T09:37:38.899Z,959.55
2022-10-21T09:38:38.679Z,959.54
2022-10-21T09:40:38.776Z,959.56
2022-10-21T09:41:38.748Z,959.57
2022-10-21T09:42:46.707Z,959.59
2022-10-21T09:43:38.984Z,959.65
2022-10-21T09:44:38.702Z,959.62
2022-10-21T09:45:38.815Z,959.63
2022-10-21T09:47:38.793Z,959.59
2022-10-21T09:48:45.210Z,959.63
2022-10-21T09:50:06.192Z,959.58
2022-10-21T09:50:38.948Z,959.61
2022-10-21T09:52:39.252Z,959.62
2022-10-21T09:53:38.732Z,959.61
2022-10-21T09:54:38.821Z,959.63
2022-10-21T09:55:38.729Z,959.62
2022-10-21T09:56:38.731Z,959.6
2022-10-21T09:57:38.739Z,959.58
2022-10-21T09:59:38.775Z,959.55
2022-10-21T10:00:38.827Z,959.57
2022-10-21T10:01:38.955Z,959.59
2022-10-21T10:02:39.087Z,959.58
2022-10-21T10:04:38.901Z,959.61
2022-10-21T10:05:38.775Z,959.59
2022-10-21T10:06:38.841Z,959.57
2022-10-21T10:07:38.761Z,959.58
2022-10-21T10:08:38.977Z,959.56
2022-10-21T10:10:40.027Z,959.52
2022-10-21T10:11:38.798Z,959.51
2022-10-21T10:12:38.954Z,959.49
2022-10-21T10:13:38.774Z,959.51
2022-10-21T10:15:38.892Z,959.47
2022-10-21T10:16:38.924Z,959.5
2022-10-21T10:17:38.887Z,959.41
2022-10-21T10:19:40.108Z,959.42
2022-10-21T10:20:38.901Z,959.4
2022-10-21T10:22:39.094Z,959.43
2022-10-21T10:23:38.893Z,959.41
2022-10-21T10:24:38.859Z,959.48
2022-10-21T10:25:38.827Z,959.47
2022-10-21T10:26:38.897Z,959.48
2022-10-21T10:27:38.965Z,959.51
2022-10-21T10:28:38.876Z,959.5
2022-10-21T10:29:38.825Z,959.45
2022-10-21T10:30:38.864Z,959.49
2022-10-21T10:31:38.828Z,959.45
2022-10-21T10:32:39.034Z,959.46
2022-10-21T10:33:40.110Z,959.4
2022-10-21T10:34:38.822Z,959.42
2022-10-21T10:35:38.831Z,959.39
2022-10-21T10:36:38.970Z,959.41
2022-10-21T10:37:38.872Z,959.38
2022-10-21T10:39:38.959Z,959.35
2022-10-21T10:41:38.971Z,959.36
2022-10-21T10:42:39.039Z,959.34
2022-10-21T10:43:38.950Z,959.35
2022-10-21T10:44:38.840Z,959.32
2022-10-21T10:45:38.980Z,959.3
2022-10-21T10:46:38.995Z,959.36
2022-10-21T10:47:39.153Z,959.37
2022-10-21T10:48:38.901Z,959.39
2022-10-21T10:49:38.859Z,959.41
2022-10-21T10:50:38.859Z,959.43
2022-10-21T10:51:38.897Z,959.4
2022-10-21T10:54:40.371Z,959.41
2022-10-21T10:55:38.958Z,959.37
2022-10-21T10:56:38.934Z,959.31
2022-10-21T10:57:44.114Z,959.35
2022-10-21T10:58:39.141Z,959.36
2022-10-21T11:00:39.040Z,959.38
2022-10-21T11:01:39.066Z,959.41
2022-10-21T11:02:39.032Z,959.4
2022-10-21T11:03:41.204Z,959.39
2022-10-21T11:05:40.401Z,959.34
2022-10-21T11:06:38.914Z,959.29
2022-10-21T11:07:39.158Z,959.33
2022-10-21T11:08:39.108Z,959.32
2022-10-21T11:10:38.976Z,959.29
2022-10-21T11:11:40.351Z,959.3
2022-10-21T11:12:38.923Z,959.33
2022-10-21T11:13:41.889Z,959.34
2022-10-21T11:14:38.920Z,959.38
2022-10-21T11:15:38.913Z,959.37
2022-10-21T11:16:44.993Z,959.34
2022-10-21T11:17:39.338Z,959.37
2022-10-21T11:19:39.094Z,959.36
2022-10-21T11:20:39.004Z,959.32
2022-10-21T11:22:39.111Z,959.29
2022-10-21T11:23:38.945Z,959.27
2022-10-21T11:24:39.042Z,959.28
2022-10-21T11:25:39.101Z,959.29
2022-10-21T11:26:38.945Z,959.32
2022-10-21T11:28:39.013Z,959.31
2022-10-21T11:29:38.971Z,959.33
2022-10-21T11:30:39.045Z,959.28
2022-10-21T11:32:39.179Z,959.24
2022-10-21T11:33:38.964Z,959.25
2022-10-21T11:34:39.031Z,959.22
2022-10-21T11:35:38.976Z,959.25
2022-10-21T11:36:38.974Z,959.26
2022-10-21T11:38:39.023Z,959.25
2022-10-21T11:39:39.059Z,959.28
2022-10-21T11:41:39.041Z,959.3
2022-10-21T11:42:39.275Z,959.35
2022-10-21T11:44:39.148Z,959.34
2022-10-21T11:45:39.075Z,959.43
2022-10-21T11:46:38.990Z,959.42
2022-10-21T11:47:39.103Z,959.45
2022-10-21T11:48:38.997Z,959.43
2022-10-21T11:49:39.034Z,959.46
2022-10-21T11:51:39.076Z,959.48
2022-10-21T11:52:39.312Z,959.51
2022-10-21T11:53:39.109Z,959.49
2022-10-21T11:54:46.502Z,959.51
2022-10-21T11:55:39.153Z,959.52
2022-10-21T11:56:39.024Z,959.49
2022-10-21T11:57:39.078Z,959.5
2022-10-21T11:58:39.036Z,959.48
2022-10-21T12:00:39.234Z,959.44
2022-10-21T12:01:39.036Z,959.43
2022-10-21T12:02:39.231Z,959.42
2022-10-21T12:03:39.092Z,959.45
2022-10-21T12:04:39.053Z,959.41
2022-10-21T12:05:39.057Z,959.45
2022-10-21T12:06:39.188Z,959.44
2022-10-21T12:07:39.049Z,959.42
2022-10-21T12:08:39.768Z,959.4
2022-10-21T12:09:40.195Z,959.39
2022-10-21T12:10:39.097Z,959.34
2022-10-21T12:11:39.131Z,959.31
2022-10-21T12:12:40.635Z,959.3
2022-10-21T12:13:39.178Z,959.28
2022-10-21T12:15:39.116Z,959.23
2022-10-21T12:16:39.075Z,959.24
2022-10-21T12:17:39.151Z,959.27
2022-10-21T12:19:39.220Z,959.26
2022-10-21T12:20:39.170Z,959.21
2022-10-21T12:21:40.285Z,959.17
2022-10-21T12:22:39.376Z,959.11
2022-10-21T12:23:39.151Z,959.08
2022-10-21T12:24:39.083Z,959.07
2022-10-21T12:25:39.193Z,959.05
2022-10-21T12:27:40.477Z,959.01
2022-10-21T12:28:39.191Z,959.02
2022-10-21T12:29:39.093Z,958.99
2022-10-21T12:30:39.231Z,959.03
2022-10-21T12:31:39.199Z,959.01
2022-10-21T12:33:39.166Z,959.03
2022-10-21T12:34:39.216Z,958.99
2022-10-21T12:35:39.168Z,959
2022-10-21T12:36:39.123Z,958.99
2022-10-21T12:37:39.234Z,959.01
2022-10-21T12:39:39.166Z,958.99
2022-10-21T12:40:39.223Z,959.02
2022-10-21T12:41:39.177Z,958.97
2022-10-21T12:43:39.176Z,958.87
2022-10-21T12:44:39.281Z,958.86
2022-10-21T12:45:39.145Z,958.81
2022-10-21T12:47:39.569Z,958.87
2022-10-21T12:48:39.161Z,958.78
2022-10-21T12:49:39.223Z,958.83
2022-10-21T12:50:39.291Z,958.8
2022-10-21T12:51:39.264Z,958.87
2022-10-21T12:52:39.225Z,958.9
2022-10-21T12:53:39.196Z,958.87
2022-10-21T12:54:39.153Z,958.88
2022-10-21T12:55:39.228Z,958.92
2022-10-21T12:56:39.294Z,958.93
2022-10-21T12:57:39.498Z,958.92
2022-10-21T12:58:39.230Z,958.93
2022-10-21T12:59:39.310Z,958.96
2022-10-21T13:00:39.426Z,958.97
2022-10-21T13:01:39.233Z,958.95
2022-10-21T13:02:39.577Z,958.93
2022-10-21T13:03:39.272Z,958.92
2022-10-21T13:04:39.181Z,958.93
2022-10-21T13:05:39.310Z,958.9
2022-10-21T13:06:39.286Z,958.89
2022-10-21T13:07:39.253Z,958.93
2022-10-21T13:08:39.225Z,958.92
2022-10-21T13:10:39.246Z,958.94
2022-10-21T13:11:39.223Z,958.9
2022-10-21T13:12:39.517Z,958.93
2022-10-21T13:13:39.353Z,958.95
2022-10-21T13:14:39.316Z,958.93
2022-10-21T13:16:39.316Z,958.9
2022-10-21T13:17:39.220Z,958.85
2022-10-21T13:18:39.311Z,958.86
2022-10-21T13:19:39.264Z,958.83
2022-10-21T13:21:39.384Z,958.81
2022-10-21T13:22:41.233Z,958.78
2022-10-21T13:23:39.227Z,958.77
2022-10-21T13:24:39.299Z,958.78
2022-10-21T13:26:39.402Z,958.79
2022-10-21T13:27:39.315Z,958.78
2022-10-21T13:29:39.445Z,958.79
2022-10-21T13:30:39.322Z,958.8
2022-10-21T13:31:39.382Z,958.78
2022-10-21T13:32:39.459Z,958.76
2022-10-21T13:33:39.256Z,958.75
2022-10-21T13:34:41.567Z,958.72
2022-10-21T13:35:39.357Z,958.75
2022-10-21T13:36:39.390Z,958.73
2022-10-21T13:37:39.437Z,958.76
2022-10-21T13:39:39.410Z,958.77
2022-10-21T13:41:39.365Z,958.74
2022-10-21T13:42:40.741Z,958.73
2022-10-21T13:43:39.289Z,958.77
2022-10-21T13:44:39.362Z,958.76
2022-10-21T13:47:39.709Z,958.81
2022-10-21T13:48:39.457Z,958.78
2022-10-21T13:49:39.307Z,958.81
2022-10-21T13:51:39.384Z,958.8
2022-10-21T13:52:39.422Z,958.89
2022-10-21T13:53:39.309Z,958.9
2022-10-21T13:54:39.314Z,958.92
2022-10-21T13:55:39.304Z,958.99
2022-10-21T13:57:39.735Z,959.03
2022-10-21T13:59:39.506Z,959.04
2022-10-21T14:00:39.471Z,959.03
2022-10-21T14:02:39.481Z,959
2022-10-21T14:04:39.356Z,959.02
2022-10-21T14:09:39.590Z,959.07
2022-10-21T14:10:39.350Z,959.09
2022-10-21T14:11:39.338Z,959.1
2022-10-21T14:12:39.536Z,959.09
2022-10-21T14:13:39.441Z,959.04
2022-10-21T14:14:39.348Z,959.09
2022-10-21T14:15:39.441Z,959.02
2022-10-21T14:16:39.454Z,959.03
2022-10-21T14:17:39.621Z,959.05
2022-10-21T14:18:39.373Z,959.03
2022-10-21T14:19:39.444Z,959.02
2022-10-21T14:20:39.379Z,959.04
2022-10-21T14:21:39.377Z,959.06
2022-10-21T14:24:39.591Z,959.08
2022-10-21T14:25:39.471Z,959.04
2022-10-21T14:26:39.382Z,959.01
2022-10-21T14:28:39.553Z,958.98
2022-10-21T14:29:39.412Z,959.04
2022-10-21T14:30:39.506Z,958.97
2022-10-21T14:31:41.843Z,958.93
2022-10-21T14:32:41.101Z,958.96
2022-10-21T14:33:39.503Z,958.91
2022-10-21T14:34:39.498Z,958.92
2022-10-21T14:35:39.420Z,958.88